Time;durP1;ratioP1;P1;durP2;ratioP2;P2;SDS_P1;SDS_P2;PMS_P1;PMS_P2;Temp;Humidity;BMP_temperature;BMP_pressure;BME280_temperature;BME280_humidity;BME280_pressure;Samples;Min_cycle;Max_cycle;Signal;HPM_P1;HPM_P2
2023/01/20 00:01:36;;;;;;;36.72;16.70;;;;;;;2.93;76.09;100035.59;4990893;28;20053;-80
2023/01/20 00:04:05;;;;;;;29.75;12.57;;;;;;;2.71;75.89;99998.16;4990487;28;20512;-82
2023/01/20 00:06:32;;;;;;;32.17;14.15;;;;;;;3.31;76.83;100089.72;4989715;28;20047;-81
2023/01/20 00:09:00;;;;;;;34.28;15.40;;;;;;;3.27;76.34;100080.16;4989563;28;20042;-81
2023/01/20 00:11:27;;;;;;;34.47;16.27;;;;;;;3.33;77.13;100073.44;4986001;28;20042;-81
2023/01/20 00:13:56;;;;;;;33.05;15.38;;;;;;;3.37;76.70;100090.69;4971848;28;20065;-81
2023/01/20 00:16:23;;;;;;;33.95;15.25;;;;;;;2.92;76.07;100015.88;4986970;28;20065;-81
2023/01/20 00:18:53;;;;;;;30.88;14.30;;;;;;;2.71;75.92;99993.03;4985872;28;20042;-81
2023/01/20 00:21:19;;;;;;;33.35;14.85;;;;;;;2.76;76.05;99993.19;4981492;28;20125;-80
2023/01/20 00:23:46;;;;;;;29.05;14.15;;;;;;;3.36;76.14;100099.25;4978376;28;20105;-81
2023/01/20 00:26:20;;;;;;;34.03;15.88;;;;;;;3.11;75.83;100055.75;4978225;28;20077;-82
2023/01/20 00:28:52;;;;;;;31.25;14.27;;;;;;;3.41;76.33;100110.53;4978823;28;20448;-82
2023/01/20 00:31:23;;;;;;;29.70;14.27;;;;;;;3.38;76.11;100100.16;4947264;28;20129;-81
2023/01/20 00:33:51;;;;;;;29.80;13.95;;;;;;;3.13;75.49;100076.38;4980673;28;20038;-81
2023/01/20 00:36:20;;;;;;;35.83;14.82;;;;;;;2.99;75.95;100034.88;4977890;28;20057;-81
2023/01/20 00:38:46;;;;;;;32.50;14.77;;;;;;;3.12;76.00;100056.63;4976669;28;20165;-81
2023/01/20 00:41:14;;;;;;;29.30;14.48;;;;;;;3.04;75.72;100071.00;4977578;28;20049;-82
2023/01/20 00:43:42;;;;;;;27.77;13.93;;;;;;;3.02;76.20;100045.25;4982603;28;20076;-82
2023/01/20 00:46:14;;;;;;;36.42;15.02;;;;;;;3.36;75.75;100097.53;4987082;28;20053;-81
2023/01/20 00:48:41;;;;;;;28.40;13.48;;;;;;;3.37;75.42;100108.72;4983799;28;20035;-82
2023/01/20 00:51:09;;;;;;;34.65;15.20;;;;;;;3.33;75.29;100097.44;4960553;28;20066;-83
2023/01/20 00:53:35;;;;;;;30.45;14.98;;;;;;;3.27;75.27;100103.31;4976308;28;20078;-84
2023/01/20 00:56:02;;;;;;;33.05;14.70;;;;;;;3.30;75.63;100108.53;4964449;28;20093;-80
2023/01/20 00:58:28;;;;;;;36.72;14.48;;;;;;;3.27;75.88;100098.16;4983397;28;20102;-82
2023/01/20 01:00:54;;;;;;;30.40;14.73;;;;;;;3.27;75.26;100102.47;4981407;28;20046;-80
2023/01/20 01:03:21;;;;;;;33.15;14.50;;;;;;;3.13;75.46;100064.38;4982794;28;20046;-81
2023/01/20 01:05:47;;;;;;;33.33;14.57;;;;;;;3.29;74.96;100104.22;4983007;28;20051;-81
2023/01/20 01:08:14;;;;;;;31.85;15.30;;;;;;;3.36;75.93;100107.81;4982573;28;20050;-81
2023/01/20 01:10:40;;;;;;;28.50;13.80;;;;;;;3.31;75.42;100094.00;4966710;28;20070;-82
2023/01/20 01:13:07;;;;;;;35.88;15.48;;;;;;;2.93;74.99;100025.31;4988283;28;20042;-82
2023/01/20 01:15:33;;;;;;;31.33;14.85;;;;;;;3.34;75.48;100116.34;4996457;28;20054;-81
2023/01/20 01:18:00;;;;;;;35.42;14.60;;;;;;;3.19;75.33;100089.41;4980435;28;20137;-82
2023/01/20 01:20:27;;;;;;;29.83;14.52;;;;;;;3.33;75.13;100092.31;4980998;28;20051;-82
2023/01/20 01:22:53;;;;;;;30.25;13.50;;;;;;;3.33;74.88;100087.16;4996907;28;20050;-83
2023/01/20 01:25:19;;;;;;;29.27;13.85;;;;;;;3.15;74.70;100090.16;4980538;28;20042;-82
2023/01/20 01:27:45;;;;;;;32.85;15.27;;;;;;;3.14;75.04;100080.69;4978338;28;20106;-81
2023/01/20 01:30:12;;;;;;;32.28;14.27;;;;;;;3.15;74.98;100085.00;4960053;28;20100;-84
2023/01/20 01:32:38;;;;;;;34.80;15.20;;;;;;;3.13;75.07;100076.38;4977278;28;20117;-81
2023/01/20 01:35:04;;;;;;;29.45;14.55;;;;;;;3.34;75.55;100099.19;4960096;28;20101;-81
2023/01/20 01:37:30;;;;;;;33.30;15.23;;;;;;;3.12;74.51;100057.50;4976399;28;20122;-81
2023/01/20 01:39:56;;;;;;;27.88;13.77;;;;;;;3.36;75.23;100107.81;4983542;28;20039;-81
2023/01/20 01:42:25;;;;;;;32.78;14.68;;;;;;;3.29;74.92;100091.38;4986732;28;20053;-81
2023/01/20 01:45:09;;;;;;;34.40;15.00;;;;;;;3.42;74.85;100095.13;4984827;28;20047;-81
2023/01/20 01:48:01;;;;;;;30.73;14.13;;;;;;;3.46;75.01;100103.78;4978712;28;20042;-81
2023/01/20 01:50:35;;;;;;;;;;;;;;;3.47;75.03;100083.25;4977954;28;20093;-80
2023/01/20 01:53:01;;;;;;;33.65;14.00;;;;;;;3.26;74.70;100096.44;4958509;28;19918;-81
2023/01/20 01:55:32;;;;;;;30.77;13.23;;;;;;;3.38;74.62;100105.31;4958308;28;20047;-80
2023/01/20 01:58:00;;;;;;;34.45;13.73;;;;;;;3.38;74.10;100101.03;4974562;28;20043;-82
2023/01/20 02:00:26;;;;;;;32.10;14.30;;;;;;;3.37;74.47;100101.84;4975133;28;20401;-81
2023/01/20 02:02:55;;;;;;;32.75;14.05;;;;;;;3.28;74.56;100084.47;4958706;28;20093;-82
2023/01/20 02:05:24;;;;;;;32.70;14.10;;;;;;;3.33;74.00;100082.00;4978305;28;20073;-81
2023/01/20 02:07:50;;;;;;;29.67;13.00;;;;;;;3.36;74.02;100092.38;4959092;28;20057;-80
2023/01/20 02:10:17;;;;;;;31.35;13.90;;;;;;;3.21;73.52;100084.28;4958476;28;20353;-81
2023/01/20 02:12:48;;;;;;;29.10;13.05;;;;;;;3.27;73.98;100100.75;4973799;28;20050;-81
2023/01/20 02:15:16;;;;;;;32.90;14.35;;;;;;;3.33;73.77;100092.31;4976585;28;20050;-82
2023/01/20 02:17:48;;;;;;;30.50;13.15;;;;;;;3.20;74.11;100077.41;4975151;28;20512;-81
2023/01/20 02:20:56;;;;;;;31.40;13.77;;;;;;;3.15;73.63;100070.44;4974002;28;20523;-80
2023/01/20 02:24:00;;;;;;;31.35;13.30;;;;;;;3.33;73.91;100081.16;4974303;28;20081;-83
2023/01/20 02:26:58;;;;;;;29.83;13.52;;;;;;;3.34;74.07;100081.19;4954994;29;20067;-82
2023/01/20 02:29:33;;;;;;;29.48;13.88;;;;;;;3.31;73.11;100104.28;4903931;28;20058;-79
2023/01/20 02:32:23;;;;;;;33.22;14.50;;;;;;;3.30;73.81;100098.25;4955158;28;20047;-81
2023/01/20 02:35:08;;;;;;;33.97;13.25;;;;;;;3.26;74.00;100077.56;4971083;28;20071;-80
2023/01/20 02:37:40;;;;;;;29.95;13.45;;;;;;;3.28;73.51;100091.34;4955945;28;20134;-82
2023/01/20 02:40:20;;;;;;;29.10;12.32;;;;;;;3.37;73.67;100114.72;4955524;29;20043;-82
2023/01/20 02:42:49;;;;;;;30.60;13.00;;;;;;;3.38;73.51;100100.16;4938640;29;20571;-80
2023/01/20 02:45:23;;;;;;;37.33;15.02;;;;;;;3.31;73.62;100107.72;4953962;29;20468;-80
2023/01/20 02:48:18;;;;;;;31.85;13.05;;;;;;;3.38;73.64;100095.00;4954214;28;20098;-80
2023/01/20 02:51:09;;;;;;;28.48;12.88;;;;;;;3.39;73.16;100097.63;4941203;29;20078;-81
2023/01/20 02:53:54;;;;;;;;;;;;;;;3.42;72.87;100138.88;4955539;28;20077;-80
2023/01/20 02:56:24;;;;;;;27.80;12.25;;;;;;;3.39;73.57;100112.19;4956160;28;20061;-82
2023/01/20 02:59:00;;;;;;;28.75;13.25;;;;;;;3.12;73.33;100067.78;4943721;29;20054;-79
2023/01/20 03:01:34;;;;;;;28.48;12.65;;;;;;;3.41;73.02;100103.66;4960956;28;20134;-80
2023/01/20 03:04:03;;;;;;;30.20;12.45;;;;;;;3.26;72.84;100096.44;4961185;28;20607;-82
2023/01/20 03:06:36;;;;;;;36.05;14.00;;;;;;;3.29;72.84;100093.94;4976470;28;20047;-80
2023/01/20 03:09:07;;;;;;;25.75;11.63;;;;;;;3.20;72.55;100092.84;4956137;28;20038;-82
2023/01/20 03:11:40;;;;;;;26.80;12.50;;;;;;;3.42;72.70;100138.00;4977377;28;20043;-81
2023/01/20 03:14:09;;;;;;;;;;;;;;;3.40;72.96;100106.22;4977327;28;20066;-80
2023/01/20 03:16:36;;;;;;;27.42;12.18;;;;;;;3.12;72.25;100082.34;4978073;28;19922;-81
2023/01/20 03:19:04;;;;;;;32.08;13.00;;;;;;;3.24;71.71;100128.97;4977281;28;20109;-83
2023/01/20 03:21:35;;;;;;;29.67;12.90;;;;;;;3.32;72.88;100126.56;4980196;28;20038;-81
2023/01/20 03:24:03;;;;;;;28.63;13.45;;;;;;;3.44;72.43;100134.63;4977351;28;20046;-82
2023/01/20 03:26:30;;;;;;;28.63;14.10;;;;;;;3.36;72.63;100117.25;4978137;28;20034;-82
2023/01/20 03:28:57;;;;;;;31.10;12.70;;;;;;;3.31;71.96;100109.44;4976958;28;20074;-81
2023/01/20 03:31:29;;;;;;;26.92;12.48;;;;;;;3.40;72.30;100126.81;4978299;28;20038;-80
2023/01/20 03:33:58;;;;;;;30.75;13.48;;;;;;;3.38;72.24;100128.47;4977405;28;20054;-80
2023/01/20 03:36:27;;;;;;;29.38;13.40;;;;;;;3.44;71.95;100136.31;4977521;28;20053;-81
2023/01/20 03:38:55;;;;;;;36.70;12.68;;;;;;;3.52;72.20;100151.97;4977176;28;20392;-82
2023/01/20 03:41:37;;;;;;;26.65;11.68;;;;;;;3.53;72.18;100146.84;4980332;28;20057;-82
2023/01/20 03:44:18;;;;;;;30.80;12.63;;;;;;;3.55;71.81;100170.03;4984495;28;20598;-80
2023/01/20 03:46:51;;;;;;;30.25;13.00;;;;;;;3.58;72.06;100155.56;4971942;28;20050;-80
2023/01/20 03:49:42;;;;;;;27.38;11.60;;;;;;;3.47;72.06;100115.81;4982896;28;20039;-82
2023/01/20 03:52:52;;;;;;;26.50;12.55;;;;;;;3.65;71.92;100143.72;4978148;28;20042;-80
2023/01/20 03:55:33;;;;;;;24.75;10.68;;;;;;;3.57;71.50;100166.69;4962810;28;20069;-81
2023/01/20 03:58:03;;;;;;;30.83;12.95;;;;;;;3.41;71.15;100131.97;4978701;28;20043;-82
2023/01/20 04:00:35;;;;;;;25.33;11.18;;;;;;;3.48;71.80;100145.84;4965319;28;20077;-82
2023/01/20 04:03:07;;;;;;;29.35;12.52;;;;;;;3.37;71.68;100125.00;4979137;28;20043;-80
2023/01/20 04:05:34;;;;;;;24.88;11.20;;;;;;;3.46;71.44;100130.41;4960426;28;20047;-83
2023/01/20 04:08:04;;;;;;;25.42;11.25;;;;;;;3.63;71.14;100171.13;4975535;28;20038;-79
2023/01/20 04:10:33;;;;;;;25.63;11.05;;;;;;;3.50;71.80;100157.06;4975547;28;20043;-80
2023/01/20 04:12:59;;;;;;;25.67;12.45;;;;;;;3.68;71.14;100166.97;4976728;28;20049;-80
2023/01/20 04:15:27;;;;;;;28.85;12.55;;;;;;;3.51;71.11;100133.06;4979620;28;20047;-81
2023/01/20 04:17:53;;;;;;;27.42;11.80;;;;;;;3.72;71.10;100163.63;4961917;28;20045;-80
2023/01/20 04:20:23;;;;;;;30.50;12.40;;;;;;;3.50;71.43;100143.34;4979932;28;20051;-80
2023/01/20 04:23:02;;;;;;;28.42;12.65;;;;;;;3.38;70.24;100126.75;4961576;28;20133;-79
2023/01/20 04:25:31;;;;;;;28.40;12.45;;;;;;;3.60;71.21;100160.75;4976163;28;20035;-80
2023/01/20 04:27:57;;;;;;;29.90;12.15;;;;;;;3.59;71.26;100159.00;4976140;28;20055;-79
2023/01/20 04:30:23;;;;;;;25.77;12.80;;;;;;;3.71;70.66;100179.91;4976952;28;20047;-81
2023/01/20 04:32:49;;;;;;;25.65;11.70;;;;;;;3.22;70.70;100080.88;4975248;28;20074;-81
2023/01/20 04:35:18;;;;;;;26.48;11.82;;;;;;;3.77;70.64;100171.47;4975392;28;20065;-78
2023/01/20 04:37:44;;;;;;;29.27;11.98;;;;;;;3.75;70.92;100173.97;4959201;28;20528;-81
2023/01/20 04:40:11;;;;;;;30.92;12.73;;;;;;;3.42;70.43;100117.41;4976005;28;20114;-80
2023/01/20 04:42:37;;;;;;;28.10;12.57;;;;;;;3.57;70.29;100150.38;4974708;28;20046;-83
2023/01/20 04:45:04;;;;;;;27.35;13.07;;;;;;;3.65;70.01;100172.03;4975190;28;20133;-80
2023/01/20 04:47:32;;;;;;;31.88;12.07;;;;;;;3.63;70.38;100172.84;4976532;28;20461;-81
2023/01/20 04:49:58;;;;;;;25.80;11.43;;;;;;;3.50;69.86;100167.34;4976231;28;20050;-80
2023/01/20 04:52:24;;;;;;;30.50;12.73;;;;;;;3.50;70.64;100176.78;4975739;28;20125;-82
2023/01/20 04:54:50;;;;;;;29.05;12.80;;;;;;;3.22;70.35;100134.91;4960887;28;20070;-79
2023/01/20 04:57:16;;;;;;;31.42;11.98;;;;;;;3.11;70.72;100132.03;4977000;28;20447;-81
2023/01/20 04:59:43;;;;;;;27.60;11.80;;;;;;;3.39;70.44;100181.66;4975008;28;20054;-81
2023/01/20 05:02:11;;;;;;;26.63;12.10;;;;;;;3.38;70.76;100182.50;4975157;28;20105;-80
2023/01/20 05:04:40;;;;;;;30.58;12.23;;;;;;;3.36;70.58;100190.16;4977610;28;20065;-83
2023/01/20 05:07:07;;;;;;;28.23;12.73;;;;;;;3.36;70.28;100189.28;4975840;28;20054;-79
2023/01/20 05:09:33;;;;;;;28.88;12.02;;;;;;;3.15;70.00;100168.16;4952992;28;20080;-80
2023/01/20 05:11:59;;;;;;;29.20;11.57;;;;;;;3.10;70.16;100176.59;4971908;28;20039;-80
2023/01/20 05:14:25;;;;;;;31.25;12.30;;;;;;;3.11;70.73;100183.47;4957665;28;20073;-81
2023/01/20 05:17:05;;;;;;;28.13;12.40;;;;;;;3.24;70.25;100203.53;4941063;29;20051;-81
2023/01/20 05:20:02;;;;;;;23.98;11.13;;;;;;;2.15;70.23;100036.88;4954610;28;20045;-81
2023/01/20 05:22:34;;;;;;;27.23;11.55;;;;;;;2.83;70.43;100127.03;4955334;29;20520;-81
2023/01/20 05:25:04;;;;;;;31.23;12.10;;;;;;;3.24;70.48;100164.13;4967271;28;20052;-80
2023/01/20 05:28:00;;;;;;;25.00;11.25;;;;;;;2.57;70.47;100044.03;4959727;28;20065;-81
2023/01/20 05:30:39;;;;;;;27.63;12.98;;;;;;;2.30;70.74;99991.09;4959767;28;20034;-80
2023/01/20 05:33:14;;;;;;;26.48;11.60;;;;;;;3.42;70.42;100184.31;4964665;28;20137;-81
2023/01/20 05:36:05;;;;;;;28.00;12.13;;;;;;;3.01;70.17;100116.34;4979884;28;20521;-79
2023/01/20 05:38:38;;;;;;;30.40;11.82;;;;;;;3.40;70.04;100168.81;4963445;28;20130;-82
2023/01/20 05:41:25;;;;;;;28.55;11.80;;;;;;;3.08;70.47;100140.56;4979342;28;20039;-79
2023/01/20 05:43:54;;;;;;;27.75;11.68;;;;;;;3.03;69.98;100138.66;4968380;28;20073;-80
2023/01/20 05:46:20;;;;;;;31.20;12.32;;;;;;;3.31;69.75;100187.47;4981436;28;20042;-82
2023/01/20 05:48:49;;;;;;;27.40;12.57;;;;;;;3.37;69.94;100211.63;4985863;28;20106;-80
2023/01/20 05:51:15;;;;;;;30.55;12.02;;;;;;;3.37;70.29;100209.03;4988226;28;20042;-81
2023/01/20 05:53:42;;;;;;;27.73;12.75;;;;;;;3.22;69.95;100196.63;4970946;28;20058;-81
2023/01/20 05:56:18;;;;;;;27.75;11.05;;;;;;;2.35;70.20;100071.69;4983727;28;20049;-81
2023/01/20 05:59:05;;;;;;;28.85;12.65;;;;;;;2.63;69.98;100090.47;4981611;28;20142;-81
2023/01/20 06:01:37;;;;;;;28.80;11.73;;;;;;;2.56;70.26;100078.28;4964727;28;20039;-83
2023/01/20 06:04:03;;;;;;;30.20;12.70;;;;;;;2.07;69.72;99993.91;4982250;28;20077;-80
2023/01/20 06:07:03;;;;;;;30.45;12.05;;;;;;;3.26;70.50;100235.34;4976589;28;20046;-81
2023/01/20 06:09:44;;;;;;;30.40;12.35;;;;;;;2.85;70.35;100132.19;4980100;28;20065;-80
2023/01/20 06:12:31;;;;;;;29.10;13.13;;;;;;;2.95;69.88;100154.78;4980495;28;20551;-82
2023/01/20 06:15:31;;;;;;;;;;;;;;;;;;;;;
2023/01/20 06:18:06;;;;;;;29.77;12.23;;;;;;;2.29;69.68;100051.00;4981715;28;20101;-81
2023/01/20 06:20:40;;;;;;;28.35;12.23;;;;;;;2.85;70.40;100132.19;4981199;28;20034;-80
2023/01/20 06:23:23;;;;;;;28.70;11.82;;;;;;;2.82;69.97;100135.56;4983092;28;20052;-80
2023/01/20 06:26:13;;;;;;;33.15;13.32;;;;;;;2.25;69.98;100062.88;4982530;28;20379;-81
2023/01/20 06:28:40;;;;;;;32.92;13.85;;;;;;;3.22;69.86;100204.34;4971668;28;20062;-80
2023/01/20 06:31:21;;;;;;;26.80;11.43;;;;;;;3.17;70.21;100209.38;5000519;28;20046;-79
2023/01/20 06:33:47;;;;;;;28.20;12.60;;;;;;;3.33;70.53;100226.06;4979856;28;20046;-81
2023/01/20 06:36:15;;;;;;;31.23;12.18;;;;;;;2.99;69.91;100184.88;4965784;28;20082;-78
2023/01/20 06:38:47;;;;;;;33.35;13.02;;;;;;;3.27;70.35;100224.22;4980311;28;20047;-81
2023/01/20 06:41:14;;;;;;;27.48;12.43;;;;;;;3.30;69.94;100214.00;4983903;28;20042;-81
2023/01/20 06:43:45;;;;;;;32.33;12.80;;;;;;;2.80;70.22;100131.19;4987496;28;20066;-80
2023/01/20 06:46:14;;;;;;;29.23;13.50;;;;;;;2.75;69.74;100102.81;4977383;28;20062;-82
2023/01/20 06:48:41;;;;;;;27.48;11.80;;;;;;;3.11;69.77;100158.63;4980278;28;20038;-82
2023/01/20 06:51:16;;;;;;;31.20;13.82;;;;;;;2.83;69.43;100110.72;4972517;28;20042;-79
2023/01/20 06:53:46;;;;;;;25.13;11.60;;;;;;;3.67;69.92;100260.47;4968945;28;20046;-79
2023/01/20 06:56:13;;;;;;;31.92;13.07;;;;;;;2.61;70.00;100050.16;4962575;28;20035;-82
2023/01/20 06:58:47;;;;;;;29.90;12.82;;;;;;;3.38;69.82;100177.34;4974707;28;20069;-81
2023/01/20 07:01:25;;;;;;;32.13;13.00;;;;;;;3.83;70.13;100273.72;4973423;28;20039;-80
2023/01/20 07:03:52;;;;;;;29.90;12.27;;;;;;;3.19;69.35;100148.56;4961715;28;20039;-81
2023/01/20 07:06:39;;;;;;;26.55;11.98;;;;;;;3.82;69.17;100261.69;4971963;28;20554;-81
2023/01/20 07:09:29;;;;;;;27.25;11.82;;;;;;;3.57;68.66;100214.69;4978648;28;20050;-80
2023/01/20 07:12:07;;;;;;;29.15;12.10;;;;;;;3.53;68.84;100228.34;4956300;29;20563;-80
2023/01/20 07:14:36;;;;;;;26.75;11.93;;;;;;;3.74;69.25;100271.78;4954764;29;20513;-82
2023/01/20 07:17:13;;;;;;;31.85;13.02;;;;;;;3.96;68.88;100290.38;4942395;28;20078;-81
2023/01/20 07:19:39;;;;;;;29.10;11.80;;;;;;;3.56;68.67;100230.97;4976590;28;20128;-82
2023/01/20 07:22:21;;;;;;;28.80;12.15;;;;;;;3.91;68.66;100297.97;4960011;28;20060;-80
2023/01/20 07:24:50;;;;;;;28.23;11.27;;;;;;;3.56;68.74;100213.84;4960169;28;20042;-82
2023/01/20 07:27:16;;;;;;;28.63;13.05;;;;;;;4.04;68.43;100304.31;4959249;28;20485;-85
2023/01/20 07:29:46;;;;;;;25.80;11.60;;;;;;;3.69;68.41;100239.91;4958912;28;20058;-81
2023/01/20 07:32:12;;;;;;;28.63;12.25;;;;;;;4.11;68.53;100321.66;4974178;28;20070;-79
2023/01/20 07:34:38;;;;;;;28.52;12.35;;;;;;;3.72;68.45;100221.97;4972625;28;20081;-84
2023/01/20 07:37:08;;;;;;;28.42;12.02;;;;;;;3.81;68.24;100255.69;4961767;28;20049;-82
2023/01/20 07:39:37;;;;;;;26.80;12.30;;;;;;;3.88;68.21;100280.72;4983737;28;20090;-81
2023/01/20 07:42:04;;;;;;;30.83;11.98;;;;;;;3.55;68.14;100212.09;4968912;28;20053;-83
2023/01/20 07:44:34;;;;;;;28.08;12.52;;;;;;;3.68;68.48;100227.84;4976598;28;20034;-79
2023/01/20 07:47:14;;;;;;;31.35;13.23;;;;;;;3.78;67.27;100245.28;4986566;28;20045;-79
2023/01/20 07:49:41;;;;;;;29.73;12.82;;;;;;;3.91;67.20;100283.38;4983707;28;20046;-80
2023/01/20 07:52:07;;;;;;;31.73;12.95;;;;;;;4.05;67.68;100300.91;4991291;28;20516;-82
2023/01/20 07:54:37;;;;;;;28.83;12.30;;;;;;;3.72;67.71;100258.00;4971025;28;20039;-82
2023/01/20 07:57:12;;;;;;;28.27;12.80;;;;;;;4.00;67.31;100317.94;4984775;28;21091;-81
2023/01/20 07:59:44;;;;;;;29.60;12.75;;;;;;;3.30;67.43;100184.88;4970654;28;20098;-81
2023/01/20 08:02:20;;;;;;;26.10;10.93;;;;;;;3.32;67.44;100178.03;4987816;28;20048;-82
2023/01/20 08:05:00;;;;;;;31.20;13.40;;;;;;;3.76;67.38;100259.81;4982348;28;20050;-81
2023/01/20 08:07:26;;;;;;;29.15;12.63;;;;;;;4.18;67.38;100313.25;4964536;28;20030;-81
2023/01/20 08:10:04;;;;;;;27.85;12.05;;;;;;;3.80;66.96;100253.94;4986519;28;20042;-83
2023/01/20 08:12:32;;;;;;;31.67;12.45;;;;;;;4.06;66.97;100300.94;4999822;28;20039;-81
2023/01/20 08:15:06;;;;;;;28.60;12.60;;;;;;;3.41;67.71;100198.88;4951140;28;20054;-83
2023/01/20 08:17:32;;;;;;;27.38;13.48;;;;;;;4.22;66.82;100320.25;4951306;28;20102;-81
2023/01/20 08:19:59;;;;;;;33.05;13.32;;;;;;;4.16;66.85;100299.47;4985399;28;20049;-82
2023/01/20 08:22:26;;;;;;;28.60;11.95;;;;;;;4.32;66.65;100326.50;4983912;28;20039;-81
2023/01/20 08:24:52;;;;;;;26.92;12.45;;;;;;;4.18;67.34;100318.41;4983501;28;20054;-85
2023/01/20 08:27:18;;;;;;;28.02;13.10;;;;;;;4.16;66.68;100289.16;4980086;28;20053;-81
2023/01/20 08:29:44;;;;;;;27.30;11.20;;;;;;;4.02;66.79;100281.09;4959465;29;20057;-82
2023/01/20 08:32:10;;;;;;;28.48;11.95;;;;;;;4.14;66.93;100295.13;4959015;29;20094;-85
2023/01/20 08:34:37;;;;;;;27.83;12.25;;;;;;;4.16;66.69;100306.34;4943429;29;20046;-84
2023/01/20 08:37:06;;;;;;;29.38;12.30;;;;;;;4.08;66.69;100282.97;4961840;28;20110;-82
2023/01/20 08:39:33;;;;;;;28.60;12.93;;;;;;;4.15;67.16;100282.28;4945313;28;20043;-81
2023/01/20 08:42:00;;;;;;;26.40;12.05;;;;;;;3.45;66.79;100138.06;4960666;28;20468;-81
2023/01/20 08:44:30;;;;;;;27.05;12.50;;;;;;;4.62;66.37;100329.78;4960262;29;20102;-84
2023/01/20 08:46:58;;;;;;;27.38;11.68;;;;;;;4.40;66.39;100274.28;4944986;28;20043;-82
2023/01/20 08:49:28;;;;;;;26.23;12.00;;;;;;;4.46;66.17;100283.03;4960106;28;20129;-79
2023/01/20 08:51:58;;;;;;;25.23;12.55;;;;;;;4.49;65.93;100284.78;4958156;28;20050;-80
2023/01/20 08:54:33;;;;;;;23.73;10.93;;;;;;;4.26;65.85;100253.34;4927931;29;20441;-86
2023/01/20 08:57:02;;;;;;;;;;;;;;;4.55;66.26;100322.72;4946182;28;20057;-83
2023/01/20 08:59:28;;;;;;;25.15;11.73;;;;;;;4.56;65.53;100353.72;4924818;29;20311;-81
2023/01/20 09:02:05;;;;;;;29.58;13.38;;;;;;;4.59;66.35;100319.41;4945569;29;20109;-83
2023/01/20 09:04:53;;;;;;;29.83;12.20;;;;;;;4.34;65.91;100296.50;4932999;29;20047;-82
2023/01/20 09:07:25;;;;;;;30.33;13.20;;;;;;;4.18;66.31;100272.03;4938692;29;20054;-82
2023/01/20 09:09:52;;;;;;;26.50;11.25;;;;;;;4.32;65.31;100250.88;4944995;28;20110;-82
2023/01/20 09:12:19;;;;;;;28.38;10.93;;;;;;;4.29;65.15;100250.84;4954405;28;20529;-78
2023/01/20 09:14:45;;;;;;;26.20;12.15;;;;;;;4.79;65.79;100322.44;4939413;29;20133;-82
2023/01/20 09:17:13;;;;;;;30.45;12.40;;;;;;;4.61;64.68;100302.25;4951082;29;20505;-82
2023/01/20 09:19:40;;;;;;;28.42;11.70;;;;;;;4.75;65.12;100320.63;4924140;29;20039;-84
2023/01/20 09:22:06;;;;;;;27.40;13.57;;;;;;;4.31;65.40;100256.88;4957468;29;20567;-80
2023/01/20 09:24:43;;;;;;;30.25;13.13;;;;;;;4.86;65.14;100341.50;4943781;29;20050;-82
2023/01/20 09:27:10;;;;;;;25.02;12.18;;;;;;;4.42;65.08;100282.91;4957811;28;20534;-82
2023/01/20 09:29:40;;;;;;;25.38;11.27;;;;;;;3.81;65.34;100155.25;4942348;28;20063;-85
2023/01/20 09:32:06;;;;;;;25.05;11.52;;;;;;;4.29;64.77;100225.06;4960524;28;20503;-81
2023/01/20 09:34:33;;;;;;;28.77;11.73;;;;;;;5.06;64.72;100342.84;4989066;28;20042;-80
2023/01/20 09:45:47;;;;;;;24.40;11.60;;;;;;;4.47;64.88;100225.50;4977687;28;20050;-80
2023/01/20 09:54:28;;;;;;;23.15;11.63;;;;;;;5.26;64.20;100342.38;4980337;28;20062;-82
2023/01/20 09:56:58;;;;;;;26.40;11.70;;;;;;;5.15;64.14;100320.66;4977902;28;20069;-81
2023/01/20 09:59:31;;;;;;;25.92;12.15;;;;;;;5.19;63.34;100345.66;4981421;28;20043;-82
2023/01/20 10:02:10;;;;;;;24.30;11.88;;;;;;;5.04;64.12;100307.53;4943785;28;20034;-83
2023/01/20 10:04:47;;;;;;;26.73;11.60;;;;;;;5.24;63.73;100360.44;4969893;28;20046;-81
2023/01/20 10:07:32;;;;;;;25.25;11.02;;;;;;;5.19;64.16;100356.00;4978441;28;20054;-81
2023/01/20 10:10:36;;;;;;;24.73;11.40;;;;;;;5.05;63.54;100337.66;4980158;28;20043;-82
2023/01/20 10:13:19;;;;;;;26.40;11.40;;;;;;;5.15;63.77;100356.78;4994599;28;20065;-83
2023/01/20 10:16:11;;;;;;;;;;;;;;;;;;;;;
2023/01/20 10:18:59;;;;;;;23.88;11.70;;;;;;;4.54;62.90;100249.69;4987198;28;20042;-81
2023/01/20 10:21:36;;;;;;;30.98;12.02;;;;;;;4.44;63.30;100256.34;4974289;28;20057;-80
2023/01/20 10:24:23;;;;;;;28.30;11.70;;;;;;;4.72;63.48;100300.81;4971989;28;20093;-82
2023/01/20 10:30:00;;;;;;;24.25;10.85;;;;;;;4.03;63.43;100208.16;4889469;29;20179;-80
2023/01/20 10:32:35;;;;;;;21.13;10.20;;;;;;;4.76;63.24;100309.47;4894370;29;20115;-81
2023/01/20 10:35:24;;;;;;;24.30;11.25;;;;;;;3.92;63.25;100176.97;4896596;29;20426;-81
2023/01/20 10:37:57;;;;;;;23.83;10.85;;;;;;;4.54;63.41;100265.16;4871897;29;20047;-82
2023/01/20 10:40:43;;;;;;;24.45;11.43;;;;;;;4.85;63.27;100307.13;4914517;29;20139;-80
2023/01/20 10:43:20;;;;;;;23.48;11.32;;;;;;;5.24;63.18;100368.19;4880268;29;20041;-79
2023/01/20 10:46:04;;;;;;;29.25;11.10;;;;;;;5.42;63.21;100369.41;4894215;29;20051;-80
2023/01/20 10:48:53;;;;;;;34.45;11.77;;;;;;;5.52;63.10;100385.97;4882190;29;20142;-81
2023/01/20 10:51:54;;;;;;;23.33;10.70;;;;;;;5.54;63.55;100395.47;4882877;29;20059;-80
2023/01/20 10:54:30;;;;;;;22.63;10.83;;;;;;;5.61;63.04;100387.84;4898167;29;20528;-81
2023/01/20 10:57:03;;;;;;;23.17;11.25;;;;;;;4.46;62.28;100204.81;4897753;29;20285;-82
2023/01/20 10:59:41;;;;;;;27.42;11.75;;;;;;;5.76;62.98;100374.41;4910438;29;20438;-83
2023/01/20 11:02:18;;;;;;;21.27;10.35;;;;;;;5.83;63.27;100379.72;4880104;29;20073;-80
2023/01/20 11:04:55;;;;;;;23.25;10.30;;;;;;;5.51;62.63;100320.56;4887008;29;20052;-82
2023/01/20 11:07:25;;;;;;;22.27;10.98;;;;;;;5.24;61.75;100283.03;4876478;29;20043;-79
2023/01/20 11:09:54;;;;;;;24.50;11.00;;;;;;;4.70;61.63;100191.63;4894351;29;20040;-79
2023/01/20 11:12:35;;;;;;;23.58;11.05;;;;;;;4.78;61.76;100202.09;4908855;29;20044;-81
2023/01/20 11:15:24;;;;;;;19.52;10.18;;;;;;;5.17;61.92;100291.47;4892307;29;20068;-84
2023/01/20 11:18:14;;;;;;;19.70;10.07;;;;;;;4.37;61.39;100218.38;4871704;29;20092;-82
2023/01/20 11:20:48;;;;;;;19.58;10.38;;;;;;;4.83;61.86;100303.63;4858959;29;20510;-80
2023/01/20 11:23:56;;;;;;;18.50;9.05;;;;;;;5.10;61.54;100361.81;4866379;29;20020;-80
2023/01/20 11:26:32;;;;;;;24.52;10.82;;;;;;;5.07;62.60;100354.03;4886050;29;20068;-82
2023/01/20 11:29:10;;;;;;;21.35;10.00;;;;;;;5.40;62.16;100408.09;4925024;23;20079;-80
2023/01/20 11:31:39;;;;;;;31.08;10.48;;;;;;;5.39;61.99;100403.78;4922374;29;20047;-79
2023/01/20 11:34:24;;;;;;;19.67;9.45;;;;;;;5.32;61.82;100396.72;4905366;29;20039;-81
2023/01/20 11:37:17;;;;;;;21.75;10.75;;;;;;;5.12;61.60;100376.50;4903972;29;20048;-81
2023/01/20 11:39:59;;;;;;;20.75;10.18;;;;;;;5.30;61.92;100397.53;4903652;29;20383;-82
2023/01/20 11:42:28;;;;;;;21.88;10.45;;;;;;;5.10;61.82;100351.50;4921581;29;20080;-78
2023/01/20 11:45:08;;;;;;;23.20;9.82;;;;;;;4.05;61.99;100195.31;4910558;29;20044;-81
2023/01/20 11:48:03;;;;;;;21.23;10.18;;;;;;;4.42;62.04;100265.75;4927084;29;20064;-81
2023/01/20 11:50:59;;;;;;;23.73;10.27;;;;;;;5.33;62.23;100416.53;4913543;29;20040;-81
2023/01/20 11:53:31;;;;;;;21.73;10.25;;;;;;;4.39;61.83;100236.47;4894412;29;20075;-82
2023/01/20 11:56:13;;;;;;;24.58;10.57;;;;;;;5.53;62.13;100429.00;4913298;29;20049;-78
2023/01/20 11:59:06;;;;;;;20.67;9.68;;;;;;;4.96;62.20;100322.84;4910997;29;20072;-80
2023/01/20 12:01:52;;;;;;;21.02;9.85;;;;;;;5.23;61.21;100371.59;4908201;29;20048;-80
2023/01/20 12:04:46;;;;;;;21.30;9.32;;;;;;;5.32;61.17;100407.06;4885732;29;20443;-83
2023/01/20 12:08:33;;;;;;;21.30;9.55;;;;;;;4.57;61.92;100323.63;4922127;29;20126;-82
2023/01/20 12:18:52;;;;;;;20.52;9.48;;;;;;;4.31;62.41;100323.88;4890246;29;20048;-81